sensor_id;sensor_type;location;lat;lon;timestamp;P1;durP1;ratioP1;P2;durP2;ratioP2
65189;SDS011;51777;53.570;9.984;2023-12-28T00:00:06;4.75;;;1.92;;
65189;SDS011;51777;53.570;9.984;2023-12-28T00:02:32;2.10;;;1.50;;
65189;SDS011;51777;53.570;9.984;2023-12-28T00:04:58;2.38;;;1.90;;
65189;SDS011;51777;53.570;9.984;2023-12-28T00:07:23;2.65;;;1.05;;
65189;SDS011;51777;53.570;9.984;2023-12-28T00:09:49;1.55;;;1.45;;
65189;SDS011;51777;53.570;9.984;2023-12-28T00:12:14;4.50;;;2.15;;
65189;SDS011;51777;53.570;9.984;2023-12-28T00:14:40;3.78;;;1.92;;
65189;SDS011;51777;53.570;9.984;2023-12-28T00:17:05;2.90;;;1.80;;
65189;SDS011;51777;53.570;9.984;2023-12-28T00:19:31;3.58;;;1.77;;
65189;SDS011;51777;53.570;9.984;2023-12-28T00:21:56;1.70;;;1.30;;
65189;SDS011;51777;53.570;9.984;2023-12-28T00:24:22;4.38;;;1.60;;
65189;SDS011;51777;53.570;9.984;2023-12-28T00:26:47;2.08;;;1.30;;
65189;SDS011;51777;53.570;9.984;2023-12-28T00:29:12;1.90;;;1.58;;
65189;SDS011;51777;53.570;9.984;2023-12-28T00:31:38;2.40;;;1.90;;
65189;SDS011;51777;53.570;9.984;2023-12-28T00:34:03;2.03;;;1.60;;
65189;SDS011;51777;53.570;9.984;2023-12-28T00:36:29;10.38;;;2.08;;
65189;SDS011;51777;53.570;9.984;2023-12-28T00:38:54;1.90;;;1.65;;
65189;SDS011;51777;53.570;9.984;2023-12-28T00:41:20;3.40;;;1.65;;
65189;SDS011;51777;53.570;9.984;2023-12-28T00:43:45;2.30;;;1.55;;
65189;SDS011;51777;53.570;9.984;2023-12-28T00:46:11;3.17;;;1.70;;
65189;SDS011;51777;53.570;9.984;2023-12-28T00:48:36;3.45;;;1.90;;
65189;SDS011;51777;53.570;9.984;2023-12-28T00:51:02;2.00;;;1.50;;
65189;SDS011;51777;53.570;9.984;2023-12-28T00:53:27;3.72;;;2.03;;
65189;SDS011;51777;53.570;9.984;2023-12-28T00:55:53;3.25;;;1.95;;
65189;SDS011;51777;53.570;9.984;2023-12-28T00:58:20;1.95;;;1.75;;
65189;SDS011;51777;53.570;9.984;2023-12-28T01:00:45;2.65;;;1.58;;
65189;SDS011;51777;53.570;9.984;2023-12-28T01:03:11;3.08;;;1.50;;
65189;SDS011;51777;53.570;9.984;2023-12-28T01:05:36;2.20;;;1.42;;
65189;SDS011;51777;53.570;9.984;2023-12-28T01:08:02;4.10;;;2.20;;
65189;SDS011;51777;53.570;9.984;2023-12-28T01:10:28;5.50;;;1.83;;
65189;SDS011;51777;53.570;9.984;2023-12-28T01:12:53;2.40;;;1.83;;
65189;SDS011;51777;53.570;9.984;2023-12-28T01:15:19;2.25;;;1.80;;
65189;SDS011;51777;53.570;9.984;2023-12-28T01:17:45;1.40;;;1.10;;
65189;SDS011;51777;53.570;9.984;2023-12-28T01:20:11;8.68;;;1.98;;
65189;SDS011;51777;53.570;9.984;2023-12-28T01:22:37;3.95;;;1.90;;
65189;SDS011;51777;53.570;9.984;2023-12-28T01:25:03;3.88;;;1.30;;
65189;SDS011;51777;53.570;9.984;2023-12-28T01:27:29;3.92;;;2.00;;
65189;SDS011;51777;53.570;9.984;2023-12-28T01:29:54;6.43;;;1.75;;
65189;SDS011;51777;53.570;9.984;2023-12-28T01:32:20;1.20;;;1.10;;
65189;SDS011;51777;53.570;9.984;2023-12-28T01:34:45;4.03;;;2.13;;
65189;SDS011;51777;53.570;9.984;2023-12-28T01:37:11;4.80;;;2.05;;
65189;SDS011;51777;53.570;9.984;2023-12-28T01:39:36;1.65;;;1.55;;
65189;SDS011;51777;53.570;9.984;2023-12-28T01:42:02;3.30;;;2.08;;
65189;SDS011;51777;53.570;9.984;2023-12-28T01:44:29;2.35;;;1.63;;
65189;SDS011;51777;53.570;9.984;2023-12-28T01:46:54;3.70;;;2.25;;
65189;SDS011;51777;53.570;9.984;2023-12-28T01:49:20;3.97;;;1.88;;
65189;SDS011;51777;53.570;9.984;2023-12-28T01:51:46;3.38;;;2.10;;
65189;SDS011;51777;53.570;9.984;2023-12-28T01:54:13;4.63;;;1.63;;
65189;SDS011;51777;53.570;9.984;2023-12-28T01:56:38;1.63;;;1.52;;
65189;SDS011;51777;53.570;9.984;2023-12-28T01:59:05;3.42;;;1.70;;
65189;SDS011;51777;53.570;9.984;2023-12-28T02:01:30;5.35;;;1.88;;
65189;SDS011;51777;53.570;9.984;2023-12-28T02:03:56;3.42;;;2.50;;
65189;SDS011;51777;53.570;9.984;2023-12-28T02:06:23;4.80;;;2.50;;
65189;SDS011;51777;53.570;9.984;2023-12-28T02:08:49;2.45;;;1.67;;
65189;SDS011;51777;53.570;9.984;2023-12-28T02:11:15;3.00;;;1.58;;
65189;SDS011;51777;53.570;9.984;2023-12-28T02:13:40;3.97;;;2.20;;
65189;SDS011;51777;53.570;9.984;2023-12-28T02:16:07;3.15;;;2.28;;
65189;SDS011;51777;53.570;9.984;2023-12-28T02:18:44;5.47;;;2.40;;
65189;SDS011;51777;53.570;9.984;2023-12-28T02:21:14;2.45;;;1.60;;
65189;SDS011;51777;53.570;9.984;2023-12-28T02:23:46;2.33;;;1.65;;
65189;SDS011;51777;53.570;9.984;2023-12-28T02:26:13;3.63;;;1.48;;
65189;SDS011;51777;53.570;9.984;2023-12-28T02:28:38;3.63;;;1.95;;
65189;SDS011;51777;53.570;9.984;2023-12-28T02:31:04;3.28;;;2.35;;
65189;SDS011;51777;53.570;9.984;2023-12-28T02:33:38;3.58;;;2.28;;
65189;SDS011;51777;53.570;9.984;2023-12-28T02:36:14;3.08;;;1.80;;
65189;SDS011;51777;53.570;9.984;2023-12-28T02:38:43;2.67;;;1.95;;
65189;SDS011;51777;53.570;9.984;2023-12-28T02:41:11;6.68;;;1.95;;
65189;SDS011;51777;53.570;9.984;2023-12-28T02:43:37;3.80;;;2.03;;
65189;SDS011;51777;53.570;9.984;2023-12-28T02:46:02;3.42;;;1.85;;
65189;SDS011;51777;53.570;9.984;2023-12-28T02:48:29;2.60;;;2.00;;
65189;SDS011;51777;53.570;9.984;2023-12-28T02:50:54;3.90;;;2.30;;
65189;SDS011;51777;53.570;9.984;2023-12-28T02:53:20;2.60;;;1.73;;
65189;SDS011;51777;53.570;9.984;2023-12-28T02:55:45;3.83;;;2.25;;
65189;SDS011;51777;53.570;9.984;2023-12-28T02:58:11;5.07;;;2.20;;
65189;SDS011;51777;53.570;9.984;2023-12-28T03:00:36;2.78;;;2.00;;
65189;SDS011;51777;53.570;9.984;2023-12-28T03:03:02;6.72;;;2.80;;
65189;SDS011;51777;53.570;9.984;2023-12-28T03:05:27;3.28;;;2.30;;
65189;SDS011;51777;53.570;9.984;2023-12-28T03:07:53;2.63;;;1.77;;
65189;SDS011;51777;53.570;9.984;2023-12-28T03:10:20;1.60;;;1.48;;
65189;SDS011;51777;53.570;9.984;2023-12-28T03:12:46;4.32;;;2.40;;
65189;SDS011;51777;53.570;9.984;2023-12-28T03:15:11;2.15;;;1.95;;
65189;SDS011;51777;53.570;9.984;2023-12-28T03:17:37;2.47;;;1.80;;
65189;SDS011;51777;53.570;9.984;2023-12-28T03:20:03;6.55;;;1.83;;
65189;SDS011;51777;53.570;9.984;2023-12-28T03:22:29;3.05;;;1.65;;
65189;SDS011;51777;53.570;9.984;2023-12-28T03:24:55;2.30;;;1.75;;
65189;SDS011;51777;53.570;9.984;2023-12-28T03:27:20;6.47;;;2.80;;
65189;SDS011;51777;53.570;9.984;2023-12-28T03:29:45;3.35;;;2.05;;
65189;SDS011;51777;53.570;9.984;2023-12-28T03:32:11;6.18;;;2.47;;
65189;SDS011;51777;53.570;9.984;2023-12-28T03:34:37;2.33;;;1.70;;
65189;SDS011;51777;53.570;9.984;2023-12-28T03:37:02;3.30;;;1.98;;
65189;SDS011;51777;53.570;9.984;2023-12-28T03:39:28;2.95;;;1.85;;
65189;SDS011;51777;53.570;9.984;2023-12-28T03:41:53;2.40;;;2.20;;
65189;SDS011;51777;53.570;9.984;2023-12-28T03:44:19;3.55;;;2.20;;
65189;SDS011;51777;53.570;9.984;2023-12-28T03:46:48;3.90;;;2.53;;
65189;SDS011;51777;53.570;9.984;2023-12-28T03:49:16;5.65;;;2.72;;
65189;SDS011;51777;53.570;9.984;2023-12-28T03:51:42;2.33;;;1.98;;
65189;SDS011;51777;53.570;9.984;2023-12-28T03:54:08;4.93;;;2.08;;
65189;SDS011;51777;53.570;9.984;2023-12-28T03:56:33;6.80;;;2.78;;
65189;SDS011;51777;53.570;9.984;2023-12-28T03:59:00;4.18;;;2.03;;
65189;SDS011;51777;53.570;9.984;2023-12-28T04:01:26;3.97;;;2.42;;
65189;SDS011;51777;53.570;9.984;2023-12-28T04:03:52;6.82;;;2.70;;
65189;SDS011;51777;53.570;9.984;2023-12-28T04:06:17;3.28;;;2.45;;
65189;SDS011;51777;53.570;9.984;2023-12-28T04:08:43;8.90;;;3.10;;
65189;SDS011;51777;53.570;9.984;2023-12-28T04:11:08;4.85;;;3.00;;
65189;SDS011;51777;53.570;9.984;2023-12-28T04:13:35;7.30;;;3.05;;
65189;SDS011;51777;53.570;9.984;2023-12-28T04:16:01;4.63;;;2.20;;
65189;SDS011;51777;53.570;9.984;2023-12-28T04:18:26;5.47;;;2.50;;
65189;SDS011;51777;53.570;9.984;2023-12-28T04:20:52;9.82;;;3.40;;
65189;SDS011;51777;53.570;9.984;2023-12-28T04:23:17;4.03;;;2.40;;
65189;SDS011;51777;53.570;9.984;2023-12-28T04:25:43;9.07;;;2.65;;
65189;SDS011;51777;53.570;9.984;2023-12-28T04:28:08;5.18;;;2.80;;
65189;SDS011;51777;53.570;9.984;2023-12-28T04:30:34;4.03;;;2.33;;
65189;SDS011;51777;53.570;9.984;2023-12-28T04:33:00;4.40;;;2.67;;
65189;SDS011;51777;53.570;9.984;2023-12-28T04:35:26;4.65;;;2.30;;
65189;SDS011;51777;53.570;9.984;2023-12-28T04:37:51;3.67;;;2.55;;
65189;SDS011;51777;53.570;9.984;2023-12-28T04:40:17;4.13;;;2.25;;
65189;SDS011;51777;53.570;9.984;2023-12-28T04:42:42;5.15;;;2.63;;
65189;SDS011;51777;53.570;9.984;2023-12-28T04:45:08;6.07;;;2.83;;
65189;SDS011;51777;53.570;9.984;2023-12-28T04:47:35;3.67;;;2.05;;
65189;SDS011;51777;53.570;9.984;2023-12-28T04:50:01;4.65;;;2.65;;
65189;SDS011;51777;53.570;9.984;2023-12-28T04:52:27;1.52;;;1.42;;
65189;SDS011;51777;53.570;9.984;2023-12-28T04:54:53;3.53;;;1.98;;
65189;SDS011;51777;53.570;9.984;2023-12-28T04:57:19;11.20;;;3.00;;
65189;SDS011;51777;53.570;9.984;2023-12-28T04:59:44;3.33;;;2.03;;
65189;SDS011;51777;53.570;9.984;2023-12-28T05:02:11;4.68;;;3.10;;
65189;SDS011;51777;53.570;9.984;2023-12-28T05:04:36;8.18;;;3.05;;
65189;SDS011;51777;53.570;9.984;2023-12-28T05:07:04;5.32;;;2.67;;
65189;SDS011;51777;53.570;9.984;2023-12-28T05:09:29;2.40;;;2.10;;
65189;SDS011;51777;53.570;9.984;2023-12-28T05:11:55;5.55;;;2.97;;
65189;SDS011;51777;53.570;9.984;2023-12-28T05:14:20;5.72;;;2.80;;
65189;SDS011;51777;53.570;9.984;2023-12-28T05:16:46;4.82;;;2.42;;
65189;SDS011;51777;53.570;9.984;2023-12-28T05:19:11;5.53;;;2.95;;
65189;SDS011;51777;53.570;9.984;2023-12-28T05:21:36;4.53;;;2.03;;
65189;SDS011;51777;53.570;9.984;2023-12-28T05:24:02;5.47;;;2.40;;
65189;SDS011;51777;53.570;9.984;2023-12-28T05:26:28;6.60;;;3.40;;
65189;SDS011;51777;53.570;9.984;2023-12-28T05:28:53;3.63;;;2.10;;
65189;SDS011;51777;53.570;9.984;2023-12-28T05:31:19;6.03;;;2.63;;
65189;SDS011;51777;53.570;9.984;2023-12-28T05:33:44;6.82;;;3.20;;
65189;SDS011;51777;53.570;9.984;2023-12-28T05:36:09;4.78;;;2.47;;
65189;SDS011;51777;53.570;9.984;2023-12-28T05:38:35;7.22;;;3.00;;
65189;SDS011;51777;53.570;9.984;2023-12-28T05:41:01;7.43;;;2.80;;
65189;SDS011;51777;53.570;9.984;2023-12-28T05:43:26;11.23;;;3.55;;
65189;SDS011;51777;53.570;9.984;2023-12-28T05:45:52;9.88;;;3.17;;
65189;SDS011;51777;53.570;9.984;2023-12-28T05:48:17;9.38;;;2.92;;
65189;SDS011;51777;53.570;9.984;2023-12-28T05:50:43;7.68;;;2.95;;
65189;SDS011;51777;53.570;9.984;2023-12-28T05:53:08;4.80;;;2.65;;
65189;SDS011;51777;53.570;9.984;2023-12-28T05:55:39;3.83;;;2.88;;
65189;SDS011;51777;53.570;9.984;2023-12-28T05:58:07;5.20;;;2.75;;
65189;SDS011;51777;53.570;9.984;2023-12-28T06:00:32;4.88;;;2.38;;
65189;SDS011;51777;53.570;9.984;2023-12-28T06:02:58;6.32;;;2.70;;
65189;SDS011;51777;53.570;9.984;2023-12-28T06:05:23;4.43;;;2.50;;
65189;SDS011;51777;53.570;9.984;2023-12-28T06:07:49;6.68;;;2.88;;
65189;SDS011;51777;53.570;9.984;2023-12-28T06:10:14;4.50;;;2.70;;
65189;SDS011;51777;53.570;9.984;2023-12-28T06:12:40;6.32;;;2.75;;
65189;SDS011;51777;53.570;9.984;2023-12-28T06:15:05;5.22;;;1.95;;
65189;SDS011;51777;53.570;9.984;2023-12-28T06:17:31;4.07;;;2.50;;
65189;SDS011;51777;53.570;9.984;2023-12-28T06:19:57;7.05;;;3.08;;
65189;SDS011;51777;53.570;9.984;2023-12-28T06:22:22;5.38;;;2.38;;
65189;SDS011;51777;53.570;9.984;2023-12-28T06:24:52;2.75;;;1.67;;
65189;SDS011;51777;53.570;9.984;2023-12-28T06:27:18;5.90;;;2.60;;
65189;SDS011;51777;53.570;9.984;2023-12-28T06:29:43;7.70;;;2.90;;
65189;SDS011;51777;53.570;9.984;2023-12-28T06:32:09;3.13;;;1.88;;
65189;SDS011;51777;53.570;9.984;2023-12-28T06:34:34;11.43;;;3.10;;
65189;SDS011;51777;53.570;9.984;2023-12-28T06:37:00;6.45;;;2.40;;
65189;SDS011;51777;53.570;9.984;2023-12-28T06:39:26;5.93;;;1.80;;
65189;SDS011;51777;53.570;9.984;2023-12-28T06:41:52;7.43;;;2.20;;
65189;SDS011;51777;53.570;9.984;2023-12-28T06:44:17;5.57;;;2.40;;
65189;SDS011;51777;53.570;9.984;2023-12-28T06:46:43;6.72;;;2.30;;
65189;SDS011;51777;53.570;9.984;2023-12-28T06:49:08;3.30;;;1.77;;
65189;SDS011;51777;53.570;9.984;2023-12-28T06:51:34;3.45;;;2.08;;
65189;SDS011;51777;53.570;9.984;2023-12-28T06:53:59;6.35;;;2.10;;
65189;SDS011;51777;53.570;9.984;2023-12-28T06:56:25;2.85;;;2.20;;
65189;SDS011;51777;53.570;9.984;2023-12-28T06:58:50;4.35;;;2.00;;
65189;SDS011;51777;53.570;9.984;2023-12-28T07:01:16;6.97;;;2.72;;
65189;SDS011;51777;53.570;9.984;2023-12-28T07:03:41;4.05;;;2.40;;
65189;SDS011;51777;53.570;9.984;2023-12-28T07:06:07;4.70;;;2.33;;
65189;SDS011;51777;53.570;9.984;2023-12-28T07:08:33;4.47;;;2.42;;
65189;SDS011;51777;53.570;9.984;2023-12-28T07:10:59;8.05;;;3.20;;
65189;SDS011;51777;53.570;9.984;2023-12-28T07:13:24;4.15;;;2.30;;
65189;SDS011;51777;53.570;9.984;2023-12-28T07:15:50;4.65;;;2.35;;
65189;SDS011;51777;53.570;9.984;2023-12-28T07:18:16;7.60;;;1.95;;
65189;SDS011;51777;53.570;9.984;2023-12-28T07:20:42;3.60;;;2.15;;
65189;SDS011;51777;53.570;9.984;2023-12-28T07:23:08;5.18;;;1.77;;
65189;SDS011;51777;53.570;9.984;2023-12-28T07:25:34;4.22;;;2.30;;
65189;SDS011;51777;53.570;9.984;2023-12-28T07:27:59;5.88;;;1.95;;
65189;SDS011;51777;53.570;9.984;2023-12-28T07:30:25;2.90;;;1.67;;
65189;SDS011;51777;53.570;9.984;2023-12-28T07:32:51;6.22;;;2.70;;
65189;SDS011;51777;53.570;9.984;2023-12-28T07:35:17;5.90;;;2.28;;
65189;SDS011;51777;53.570;9.984;2023-12-28T07:37:42;7.85;;;2.55;;
65189;SDS011;51777;53.570;9.984;2023-12-28T07:40:09;3.20;;;1.63;;
65189;SDS011;51777;53.570;9.984;2023-12-28T07:42:36;3.10;;;1.90;;
65189;SDS011;51777;53.570;9.984;2023-12-28T07:45:02;7.05;;;2.30;;
65189;SDS011;51777;53.570;9.984;2023-12-28T07:47:28;6.13;;;2.30;;
65189;SDS011;51777;53.570;9.984;2023-12-28T07:49:53;4.10;;;2.08;;
65189;SDS011;51777;53.570;9.984;2023-12-28T07:52:19;5.28;;;2.00;;
65189;SDS011;51777;53.570;9.984;2023-12-28T07:54:44;4.43;;;2.08;;
65189;SDS011;51777;53.570;9.984;2023-12-28T07:57:10;6.50;;;2.25;;
65189;SDS011;51777;53.570;9.984;2023-12-28T07:59:35;8.18;;;2.55;;
65189;SDS011;51777;53.570;9.984;2023-12-28T08:02:01;8.88;;;2.60;;
65189;SDS011;51777;53.570;9.984;2023-12-28T08:04:26;5.13;;;2.10;;
65189;SDS011;51777;53.570;9.984;2023-12-28T08:06:51;8.27;;;1.85;;
65189;SDS011;51777;53.570;9.984;2023-12-28T08:09:17;6.47;;;2.17;;
65189;SDS011;51777;53.570;9.984;2023-12-28T08:11:42;5.43;;;1.73;;
65189;SDS011;51777;53.570;9.984;2023-12-28T08:14:08;8.02;;;2.28;;
65189;SDS011;51777;53.570;9.984;2023-12-28T08:16:33;5.60;;;1.58;;
65189;SDS011;51777;53.570;9.984;2023-12-28T08:19:00;7.40;;;2.45;;
65189;SDS011;51777;53.570;9.984;2023-12-28T08:21:26;5.63;;;1.90;;
65189;SDS011;51777;53.570;9.984;2023-12-28T08:23:51;8.38;;;2.20;;
65189;SDS011;51777;53.570;9.984;2023-12-28T08:26:17;4.80;;;1.92;;
65189;SDS011;51777;53.570;9.984;2023-12-28T08:28:43;4.20;;;1.90;;
65189;SDS011;51777;53.570;9.984;2023-12-28T08:31:08;4.63;;;2.20;;
65189;SDS011;51777;53.570;9.984;2023-12-28T08:33:34;5.40;;;2.20;;
65189;SDS011;51777;53.570;9.984;2023-12-28T08:36:04;2.75;;;1.40;;
65189;SDS011;51777;53.570;9.984;2023-12-28T08:38:30;13.85;;;2.45;;
65189;SDS011;51777;53.570;9.984;2023-12-28T08:40:56;2.45;;;1.70;;
65189;SDS011;51777;53.570;9.984;2023-12-28T08:43:21;8.63;;;2.33;;
65189;SDS011;51777;53.570;9.984;2023-12-28T08:45:46;6.55;;;2.03;;
65189;SDS011;51777;53.570;9.984;2023-12-28T08:48:12;8.05;;;2.33;;
65189;SDS011;51777;53.570;9.984;2023-12-28T08:50:39;7.82;;;2.15;;
65189;SDS011;51777;53.570;9.984;2023-12-28T08:53:04;5.80;;;2.13;;
65189;SDS011;51777;53.570;9.984;2023-12-28T08:55:30;9.18;;;2.22;;
65189;SDS011;51777;53.570;9.984;2023-12-28T08:57:55;8.77;;;2.05;;
65189;SDS011;51777;53.570;9.984;2023-12-28T09:00:21;4.57;;;1.67;;
65189;SDS011;51777;53.570;9.984;2023-12-28T09:02:46;9.00;;;2.20;;
65189;SDS011;51777;53.570;9.984;2023-12-28T09:05:12;5.05;;;1.77;;
65189;SDS011;51777;53.570;9.984;2023-12-28T09:07:37;9.80;;;2.22;;
65189;SDS011;51777;53.570;9.984;2023-12-28T09:10:08;7.63;;;2.30;;
65189;SDS011;51777;53.570;9.984;2023-12-28T09:12:35;7.45;;;1.67;;
65189;SDS011;51777;53.570;9.984;2023-12-28T09:15:00;7.65;;;2.50;;
65189;SDS011;51777;53.570;9.984;2023-12-28T09:17:26;6.57;;;2.15;;
65189;SDS011;51777;53.570;9.984;2023-12-28T09:19:51;7.35;;;1.90;;
65189;SDS011;51777;53.570;9.984;2023-12-28T09:22:17;5.50;;;2.25;;
65189;SDS011;51777;53.570;9.984;2023-12-28T09:24:45;8.30;;;1.88;;
65189;SDS011;51777;53.570;9.984;2023-12-28T09:27:13;6.28;;;1.83;;
65189;SDS011;51777;53.570;9.984;2023-12-28T09:29:39;3.72;;;1.70;;
65189;SDS011;51777;53.570;9.984;2023-12-28T09:32:04;9.90;;;1.70;;
65189;SDS011;51777;53.570;9.984;2023-12-28T09:34:30;4.55;;;1.50;;
65189;SDS011;51777;53.570;9.984;2023-12-28T09:36:56;8.70;;;2.05;;
65189;SDS011;51777;53.570;9.984;2023-12-28T09:39:21;5.75;;;1.83;;
65189;SDS011;51777;53.570;9.984;2023-12-28T09:41:49;4.57;;;1.70;;
65189;SDS011;51777;53.570;9.984;2023-12-28T09:44:24;5.75;;;1.73;;
65189;SDS011;51777;53.570;9.984;2023-12-28T09:46:50;5.70;;;1.98;;
65189;SDS011;51777;53.570;9.984;2023-12-28T09:49:19;5.28;;;1.85;;
65189;SDS011;51777;53.570;9.984;2023-12-28T09:51:46;6.00;;;2.10;;
65189;SDS011;51777;53.570;9.984;2023-12-28T09:54:12;12.98;;;2.22;;
65189;SDS011;51777;53.570;9.984;2023-12-28T09:56:38;5.70;;;2.00;;
65189;SDS011;51777;53.570;9.984;2023-12-28T09:59:06;9.25;;;2.30;;
65189;SDS011;51777;53.570;9.984;2023-12-28T10:01:35;5.50;;;1.90;;
65189;SDS011;51777;53.570;9.984;2023-12-28T10:04:04;7.25;;;1.70;;
65189;SDS011;51777;53.570;9.984;2023-12-28T10:06:29;7.03;;;1.88;;
65189;SDS011;51777;53.570;9.984;2023-12-28T10:08:55;9.35;;;2.20;;
65189;SDS011;51777;53.570;9.984;2023-12-28T10:11:21;12.52;;;2.08;;
65189;SDS011;51777;53.570;9.984;2023-12-28T10:13:48;8.90;;;2.33;;
65189;SDS011;51777;53.570;9.984;2023-12-28T10:16:15;8.75;;;2.47;;
65189;SDS011;51777;53.570;9.984;2023-12-28T10:18:41;10.68;;;2.67;;
65189;SDS011;51777;53.570;9.984;2023-12-28T10:21:14;9.82;;;1.83;;
65189;SDS011;51777;53.570;9.984;2023-12-28T10:23:40;8.90;;;2.50;;
65189;SDS011;51777;53.570;9.984;2023-12-28T10:26:05;10.70;;;2.35;;
65189;SDS011;51777;53.570;9.984;2023-12-28T10:28:31;10.40;;;1.90;;
65189;SDS011;51777;53.570;9.984;2023-12-28T10:31:04;8.23;;;1.77;;
65189;SDS011;51777;53.570;9.984;2023-12-28T10:33:36;9.43;;;2.20;;
65189;SDS011;51777;53.570;9.984;2023-12-28T10:36:04;4.28;;;1.90;;
65189;SDS011;51777;53.570;9.984;2023-12-28T10:38:33;10.38;;;2.25;;
65189;SDS011;51777;53.570;9.984;2023-12-28T10:41:01;11.95;;;2.40;;
65189;SDS011;51777;53.570;9.984;2023-12-28T10:43:31;10.45;;;2.45;;
65189;SDS011;51777;53.570;9.984;2023-12-28T10:46:17;10.00;;;2.08;;
65189;SDS011;51777;53.570;9.984;2023-12-28T10:48:52;14.85;;;3.20;;
65189;SDS011;51777;53.570;9.984;2023-12-28T10:51:23;13.13;;;2.20;;
65189;SDS011;51777;53.570;9.984;2023-12-28T10:54:16;4.78;;;1.88;;
65189;SDS011;51777;53.570;9.984;2023-12-28T10:57:22;6.30;;;1.83;;
65189;SDS011;51777;53.570;9.984;2023-12-28T11:02:38;5.45;;;1.92;;
65189;SDS011;51777;53.570;9.984;2023-12-28T11:05:13;8.15;;;2.05;;
65189;SDS011;51777;53.570;9.984;2023-12-28T11:07:40;7.22;;;2.08;;
65189;SDS011;51777;53.570;9.984;2023-12-28T11:10:08;8.95;;;2.15;;
65189;SDS011;51777;53.570;9.984;2023-12-28T11:12:38;11.02;;;2.22;;
65189;SDS011;51777;53.570;9.984;2023-12-28T11:15:05;8.52;;;2.20;;
65189;SDS011;51777;53.570;9.984;2023-12-28T11:17:31;12.55;;;2.40;;
65189;SDS011;51777;53.570;9.984;2023-12-28T11:19:57;9.98;;;2.22;;
65189;SDS011;51777;53.570;9.984;2023-12-28T11:22:23;10.05;;;2.33;;
65189;SDS011;51777;53.570;9.984;2023-12-28T11:24:53;2.95;;;1.13;;
65189;SDS011;51777;53.570;9.984;2023-12-28T11:27:19;5.43;;;1.77;;
65189;SDS011;51777;53.570;9.984;2023-12-28T11:29:47;10.60;;;2.28;;
65189;SDS011;51777;53.570;9.984;2023-12-28T11:32:13;3.97;;;1.63;;
65189;SDS011;51777;53.570;9.984;2023-12-28T11:34:38;9.65;;;2.72;;
65189;SDS011;51777;53.570;9.984;2023-12-28T11:37:07;8.15;;;2.20;;
65189;SDS011;51777;53.570;9.984;2023-12-28T11:39:37;11.88;;;2.83;;
65189;SDS011;51777;53.570;9.984;2023-12-28T11:42:08;14.27;;;2.50;;
65189;SDS011;51777;53.570;9.984;2023-12-28T11:44:38;10.18;;;2.17;;
65189;SDS011;51777;53.570;9.984;2023-12-28T11:50:07;15.98;;;2.53;;
65189;SDS011;51777;53.570;9.984;2023-12-28T11:52:32;8.20;;;2.10;;
65189;SDS011;51777;53.570;9.984;2023-12-28T11:54:59;8.52;;;2.30;;
65189;SDS011;51777;53.570;9.984;2023-12-28T11:57:26;8.40;;;1.90;;
65189;SDS011;51777;53.570;9.984;2023-12-28T12:00:01;6.32;;;2.40;;
65189;SDS011;51777;53.570;9.984;2023-12-28T12:02:30;12.18;;;3.05;;
65189;SDS011;51777;53.570;9.984;2023-12-28T12:04:55;8.45;;;1.98;;
65189;SDS011;51777;53.570;9.984;2023-12-28T12:07:23;11.13;;;2.42;;
65189;SDS011;51777;53.570;9.984;2023-12-28T12:09:54;8.63;;;2.45;;
65189;SDS011;51777;53.570;9.984;2023-12-28T12:12:23;10.93;;;2.40;;
65189;SDS011;51777;53.570;9.984;2023-12-28T12:14:50;5.18;;;1.60;;
65189;SDS011;51777;53.570;9.984;2023-12-28T12:17:15;6.32;;;2.33;;
65189;SDS011;51777;53.570;9.984;2023-12-28T12:19:42;4.57;;;1.95;;
65189;SDS011;51777;53.570;9.984;2023-12-28T12:22:08;11.77;;;3.20;;
65189;SDS011;51777;53.570;9.984;2023-12-28T12:24:33;11.23;;;2.22;;
65189;SDS011;51777;53.570;9.984;2023-12-28T12:27:04;15.82;;;2.60;;
65189;SDS011;51777;53.570;9.984;2023-12-28T12:29:29;14.70;;;2.58;;
65189;SDS011;51777;53.570;9.984;2023-12-28T12:31:55;14.15;;;2.47;;
65189;SDS011;51777;53.570;9.984;2023-12-28T12:34:21;4.35;;;1.92;;
65189;SDS011;51777;53.570;9.984;2023-12-28T12:36:47;9.93;;;2.40;;
65189;SDS011;51777;53.570;9.984;2023-12-28T12:39:17;11.60;;;2.47;;
65189;SDS011;51777;53.570;9.984;2023-12-28T12:41:42;8.60;;;1.90;;
65189;SDS011;51777;53.570;9.984;2023-12-28T12:44:11;11.52;;;3.05;;
65189;SDS011;51777;53.570;9.984;2023-12-28T12:46:38;9.68;;;2.33;;
65189;SDS011;51777;53.570;9.984;2023-12-28T12:49:03;14.32;;;2.58;;
65189;SDS011;51777;53.570;9.984;2023-12-28T12:51:31;8.15;;;1.98;;
65189;SDS011;51777;53.570;9.984;2023-12-28T12:53:56;7.32;;;2.15;;
65189;SDS011;51777;53.570;9.984;2023-12-28T12:56:22;13.02;;;2.67;;
65189;SDS011;51777;53.570;9.984;2023-12-28T12:58:48;20.95;;;2.47;;
65189;SDS011;51777;53.570;9.984;2023-12-28T13:01:14;11.25;;;2.22;;
65189;SDS011;51777;53.570;9.984;2023-12-28T13:03:39;13.65;;;2.90;;
65189;SDS011;51777;53.570;9.984;2023-12-28T13:06:05;9.07;;;2.10;;
65189;SDS011;51777;53.570;9.984;2023-12-28T13:08:31;11.30;;;1.95;;
65189;SDS011;51777;53.570;9.984;2023-12-28T13:10:56;6.85;;;1.95;;
65189;SDS011;51777;53.570;9.984;2023-12-28T13:13:22;11.63;;;2.50;;
65189;SDS011;51777;53.570;9.984;2023-12-28T13:15:50;10.63;;;2.30;;
65189;SDS011;51777;53.570;9.984;2023-12-28T13:18:16;9.20;;;2.80;;
65189;SDS011;51777;53.570;9.984;2023-12-28T13:20:41;11.32;;;1.92;;
65189;SDS011;51777;53.570;9.984;2023-12-28T13:23:08;7.03;;;1.75;;
65189;SDS011;51777;53.570;9.984;2023-12-28T13:25:33;5.28;;;1.90;;
65189;SDS011;51777;53.570;9.984;2023-12-28T13:27:59;17.50;;;2.90;;
65189;SDS011;51777;53.570;9.984;2023-12-28T13:30:25;14.40;;;2.28;;
65189;SDS011;51777;53.570;9.984;2023-12-28T13:32:53;8.90;;;1.77;;
65189;SDS011;51777;53.570;9.984;2023-12-28T13:35:22;9.82;;;2.25;;
65189;SDS011;51777;53.570;9.984;2023-12-28T13:37:48;18.27;;;2.95;;
65189;SDS011;51777;53.570;9.984;2023-12-28T13:40:13;12.77;;;2.55;;
65189;SDS011;51777;53.570;9.984;2023-12-28T13:42:40;13.68;;;2.67;;
65189;SDS011;51777;53.570;9.984;2023-12-28T13:45:06;8.00;;;2.40;;
65189;SDS011;51777;53.570;9.984;2023-12-28T13:47:32;12.90;;;2.50;;
65189;SDS011;51777;53.570;9.984;2023-12-28T13:49:57;11.32;;;2.58;;
65189;SDS011;51777;53.570;9.984;2023-12-28T13:52:23;8.80;;;2.38;;
65189;SDS011;51777;53.570;9.984;2023-12-28T13:54:48;10.05;;;2.72;;
65189;SDS011;51777;53.570;9.984;2023-12-28T13:57:14;11.30;;;2.50;;
65189;SDS011;51777;53.570;9.984;2023-12-28T13:59:40;16.02;;;3.28;;
65189;SDS011;51777;53.570;9.984;2023-12-28T14:02:05;15.20;;;3.20;;
65189;SDS011;51777;53.570;9.984;2023-12-28T14:04:31;19.23;;;2.72;;
65189;SDS011;51777;53.570;9.984;2023-12-28T14:06:56;14.30;;;2.80;;
65189;SDS011;51777;53.570;9.984;2023-12-28T14:09:22;10.07;;;2.35;;
65189;SDS011;51777;53.570;9.984;2023-12-28T14:11:47;9.05;;;2.42;;
65189;SDS011;51777;53.570;9.984;2023-12-28T14:14:13;15.27;;;2.22;;
65189;SDS011;51777;53.570;9.984;2023-12-28T14:16:39;13.20;;;2.38;;
65189;SDS011;51777;53.570;9.984;2023-12-28T14:19:04;21.48;;;2.72;;
65189;SDS011;51777;53.570;9.984;2023-12-28T14:21:39;19.58;;;2.90;;
65189;SDS011;51777;53.570;9.984;2023-12-28T14:24:04;12.57;;;2.00;;
65189;SDS011;51777;53.570;9.984;2023-12-28T14:26:31;9.20;;;1.90;;
65189;SDS011;51777;53.570;9.984;2023-12-28T14:28:58;4.78;;;1.38;;
65189;SDS011;51777;53.570;9.984;2023-12-28T14:31:25;8.98;;;2.47;;
65189;SDS011;51777;53.570;9.984;2023-12-28T14:33:53;9.73;;;2.08;;
65189;SDS011;51777;53.570;9.984;2023-12-28T14:38:56;12.07;;;2.65;;
65189;SDS011;51777;53.570;9.984;2023-12-28T14:41:22;14.15;;;2.42;;
65189;SDS011;51777;53.570;9.984;2023-12-28T14:43:47;12.68;;;2.65;;
65189;SDS011;51777;53.570;9.984;2023-12-28T14:46:13;19.92;;;3.72;;
65189;SDS011;51777;53.570;9.984;2023-12-28T14:48:38;9.98;;;2.13;;